Aviation Digital Data Service (ADDS)

Output produced by METARs form (0909 UTC 20 February 2018)
found at http://www.aviationweather.gov/adds/metars/
 
METAR text: LFLU 200900Z AUTO 36015KT 9999 OVC058 04/00 Q1012
Conditions at: LFLU (VALENCE-CHABEUIL, FR) observed 0900 UTC 20 February 2018
Temperature: 4.0°C (39°F)
Dewpoint: 0.0°C (32°F) [RH = 75%]
Pressure (altimeter): 29.88 inches Hg (1012.0 mb)
Winds: from the N (360 degrees) at 17 MPH (15 knots; 7.8 m/s)
Visibility: 6 or more miles (10+ km)
Ceiling: 5800 feet AGL
Clouds: overcast cloud deck at 5800 feet AGL
Weather: no significant weather observed at this time